createdAt,value
2022-11-29T00:00:28.475Z,6.38
2022-11-29T00:01:28.475Z,6.50
2022-11-29T00:02:29.264Z,6.50
2022-11-29T00:03:28.566Z,6.43
2022-11-29T00:04:28.494Z,6.34
2022-11-29T00:05:28.435Z,6.42
2022-11-29T00:06:28.444Z,6.37
2022-11-29T00:07:28.516Z,6.38
2022-11-29T00:08:29.052Z,6.34
2022-11-29T00:09:28.411Z,6.37
2022-11-29T00:10:29.150Z,6.34
2022-11-29T00:11:28.407Z,6.35
2022-11-29T00:12:28.397Z,6.40
2022-11-29T00:13:28.397Z,6.35
2022-11-29T00:14:28.406Z,6.38
2022-11-29T00:15:28.793Z,6.42
2022-11-29T00:16:28.453Z,6.47
2022-11-29T00:17:28.360Z,6.43
2022-11-29T00:18:28.423Z,6.50
2022-11-29T00:19:28.381Z,6.55
2022-11-29T00:20:28.364Z,6.57
2022-11-29T00:21:28.361Z,6.63
2022-11-29T00:22:28.352Z,6.56
2022-11-29T00:23:29.200Z,6.50
2022-11-29T00:24:28.504Z,6.50
2022-11-29T00:25:28.322Z,6.56
2022-11-29T00:26:28.502Z,6.64
2022-11-29T00:27:28.299Z,6.57
2022-11-29T00:28:28.751Z,6.64
2022-11-29T00:29:28.286Z,6.71
2022-11-29T00:30:28.360Z,6.65
2022-11-29T00:31:28.288Z,6.73
2022-11-29T00:32:28.280Z,6.68
2022-11-29T00:33:28.424Z,6.56
2022-11-29T00:34:28.292Z,6.82
2022-11-29T00:35:28.283Z,6.75
2022-11-29T00:36:28.266Z,6.79
2022-11-29T00:37:28.249Z,6.74
2022-11-29T00:38:28.362Z,6.82
2022-11-29T00:39:28.252Z,6.74
2022-11-29T00:40:28.237Z,6.74
2022-11-29T00:41:28.212Z,6.79
2022-11-29T00:42:28.210Z,6.75
2022-11-29T00:43:28.209Z,6.68
2022-11-29T00:44:28.225Z,6.70
2022-11-29T00:45:28.199Z,6.70
2022-11-29T00:46:28.240Z,6.70
2022-11-29T00:47:28.171Z,6.70
2022-11-29T00:48:28.200Z,6.65
2022-11-29T00:49:28.600Z,6.63
2022-11-29T00:50:28.159Z,6.52
2022-11-29T00:51:28.180Z,6.68
2022-11-29T00:52:28.146Z,6.73
2022-11-29T00:53:28.774Z,6.75
2022-11-29T00:54:28.148Z,6.70
2022-11-29T00:55:28.119Z,6.65
2022-11-29T00:56:28.529Z,6.57
2022-11-29T00:57:28.127Z,6.70
2022-11-29T00:58:28.124Z,6.65
2022-11-29T00:59:28.115Z,6.61
2022-11-29T01:00:28.101Z,6.60
2022-11-29T01:01:28.163Z,6.57
2022-11-29T01:02:28.218Z,6.61
2022-11-29T01:03:28.089Z,6.64
2022-11-29T01:04:28.058Z,6.63
2022-11-29T01:05:28.075Z,6.67
2022-11-29T01:06:28.082Z,6.70
2022-11-29T01:07:28.107Z,6.65
2022-11-29T01:08:28.684Z,6.64
2022-11-29T01:09:28.050Z,6.64
2022-11-29T01:10:28.022Z,6.46
2022-11-29T01:11:28.041Z,6.52
2022-11-29T01:12:28.023Z,6.52
2022-11-29T01:13:28.042Z,6.61
2022-11-29T01:14:28.006Z,6.60
2022-11-29T01:15:28.013Z,6.55
2022-11-29T01:16:28.176Z,6.55
2022-11-29T01:17:27.998Z,6.57
2022-11-29T01:18:27.984Z,6.63
2022-11-29T01:19:27.973Z,6.60
2022-11-29T01:20:27.970Z,6.61
2022-11-29T01:21:27.959Z,6.61
2022-11-29T01:22:28.624Z,6.67
2022-11-29T01:23:28.012Z,6.67
2022-11-29T01:24:27.932Z,6.68
2022-11-29T01:25:27.948Z,6.74
2022-11-29T01:26:28.417Z,6.71
2022-11-29T01:27:27.928Z,6.73
2022-11-29T01:28:27.935Z,6.75
2022-11-29T01:29:27.913Z,6.71
2022-11-29T01:30:27.962Z,6.71
2022-11-29T01:31:28.327Z,6.64
2022-11-29T01:32:27.892Z,6.70
2022-11-29T01:33:27.875Z,6.75
2022-11-29T01:34:27.943Z,6.63
2022-11-29T01:35:27.871Z,6.56
2022-11-29T01:36:27.893Z,6.65
2022-11-29T01:37:27.946Z,6.65
2022-11-29T01:38:27.858Z,6.53
2022-11-29T01:39:27.886Z,6.57
2022-11-29T01:40:28.889Z,6.71
2022-11-29T01:41:27.833Z,6.70
2022-11-29T01:42:27.840Z,6.70
2022-11-29T01:43:27.825Z,6.70
2022-11-29T01:44:27.818Z,6.74
2022-11-29T01:45:28.009Z,6.65
2022-11-29T01:46:27.898Z,6.73
2022-11-29T01:47:27.789Z,6.70
2022-11-29T01:48:27.810Z,6.75
2022-11-29T01:49:27.788Z,6.74
2022-11-29T01:50:27.777Z,6.79
2022-11-29T01:51:29.171Z,6.73
2022-11-29T01:52:27.762Z,6.68
2022-11-29T01:53:27.752Z,6.75
2022-11-29T01:54:27.766Z,6.63
2022-11-29T01:55:27.765Z,6.67
2022-11-29T01:56:28.563Z,6.70
2022-11-29T01:57:27.742Z,6.68
2022-11-29T01:58:27.724Z,6.70
2022-11-29T01:59:27.723Z,6.71
2022-11-29T02:00:27.709Z,6.63
2022-11-29T02:01:27.764Z,6.79
2022-11-29T02:02:27.978Z,6.68
2022-11-29T02:03:27.679Z,6.75
2022-11-29T02:04:27.706Z,6.57
2022-11-29T02:05:27.680Z,6.57
2022-11-29T02:06:27.771Z,6.74
2022-11-29T02:07:28.208Z,6.65
2022-11-29T02:08:27.661Z,6.55
2022-11-29T02:09:27.641Z,6.53
2022-11-29T02:10:28.331Z,6.60
2022-11-29T02:11:27.664Z,6.60
2022-11-29T02:12:27.649Z,6.60
2022-11-29T02:13:27.630Z,6.65
2022-11-29T02:14:27.622Z,6.57
2022-11-29T02:15:27.744Z,6.55
2022-11-29T02:16:27.647Z,6.55
2022-11-29T02:17:28.027Z,6.55
2022-11-29T02:18:27.593Z,6.68
2022-11-29T02:19:27.591Z,6.64
2022-11-29T02:20:27.608Z,6.67
2022-11-29T02:21:27.568Z,6.64
2022-11-29T02:22:27.621Z,6.56
2022-11-29T02:23:28.746Z,6.63
2022-11-29T02:24:27.566Z,6.60
2022-11-29T02:25:27.551Z,6.53
2022-11-29T02:26:27.559Z,6.53
2022-11-29T02:27:27.568Z,6.47
2022-11-29T02:28:27.530Z,6.43
2022-11-29T02:29:28.205Z,6.57
2022-11-29T02:30:27.529Z,6.61
2022-11-29T02:31:27.511Z,6.67
2022-11-29T02:32:27.503Z,6.65
2022-11-29T02:33:27.492Z,6.61
2022-11-29T02:34:27.521Z,6.53
2022-11-29T02:35:27.476Z,6.61
2022-11-29T02:36:27.496Z,6.50
2022-11-29T02:37:27.474Z,6.60
2022-11-29T02:38:27.464Z,6.50
2022-11-29T02:39:27.484Z,6.65
2022-11-29T02:40:27.886Z,6.55
2022-11-29T02:41:27.439Z,6.61
2022-11-29T02:42:27.456Z,6.65
2022-11-29T02:43:27.490Z,6.60
2022-11-29T02:44:27.440Z,6.61
2022-11-29T02:45:27.423Z,6.63
2022-11-29T02:46:27.462Z,6.55
2022-11-29T02:47:27.402Z,6.60
2022-11-29T02:48:27.411Z,6.52
2022-11-29T02:49:28.007Z,6.60
2022-11-29T02:50:27.389Z,6.64
2022-11-29T02:51:27.393Z,6.65
2022-11-29T02:52:27.418Z,6.68
2022-11-29T02:53:27.362Z,6.63
2022-11-29T02:54:27.379Z,6.71
2022-11-29T02:55:27.363Z,6.63
2022-11-29T02:56:27.360Z,6.67
2022-11-29T02:57:27.357Z,6.64
2022-11-29T02:58:28.091Z,6.61
2022-11-29T02:59:27.357Z,6.67
2022-11-29T03:00:27.321Z,6.74
2022-11-29T03:01:27.393Z,6.63
2022-11-29T03:02:27.435Z,6.70
2022-11-29T03:03:27.293Z,6.61
2022-11-29T03:04:27.325Z,6.63
2022-11-29T03:05:27.294Z,6.64
2022-11-29T03:06:27.298Z,6.64
2022-11-29T03:07:27.428Z,6.65
2022-11-29T03:08:27.268Z,6.68
2022-11-29T03:09:27.258Z,6.65
2022-11-29T03:10:27.283Z,6.63
2022-11-29T03:11:28.020Z,6.65
2022-11-29T03:12:27.259Z,6.75
2022-11-29T03:13:27.674Z,6.57
2022-11-29T03:14:27.970Z,6.68
2022-11-29T03:15:27.354Z,6.61
2022-11-29T03:16:27.218Z,6.61
2022-11-29T03:17:27.235Z,6.73
2022-11-29T03:18:27.228Z,6.67
2022-11-29T03:19:27.201Z,6.70
2022-11-29T03:20:27.199Z,6.64
2022-11-29T03:21:27.176Z,6.60
2022-11-29T03:22:27.213Z,6.55
2022-11-29T03:23:27.160Z,6.65
2022-11-29T03:24:27.178Z,6.60
2022-11-29T03:25:27.170Z,6.61
2022-11-29T03:26:27.154Z,6.70
2022-11-29T03:27:27.148Z,6.65
2022-11-29T03:28:28.298Z,6.75
2022-11-29T03:29:27.127Z,6.82
2022-11-29T03:30:27.129Z,6.75
2022-11-29T03:31:27.474Z,6.82
2022-11-29T03:32:27.151Z,6.78
2022-11-29T03:33:27.941Z,6.86
2022-11-29T03:34:27.141Z,6.82
2022-11-29T03:35:27.089Z,6.85
2022-11-29T03:36:27.198Z,6.88
2022-11-29T03:37:27.083Z,6.89
2022-11-29T03:38:27.075Z,6.88
2022-11-29T03:39:27.145Z,6.91
2022-11-29T03:40:27.058Z,6.99
2022-11-29T03:41:27.058Z,6.89
2022-11-29T03:42:27.080Z,6.92
2022-11-29T03:43:27.038Z,6.88
2022-11-29T03:44:27.051Z,6.92
2022-11-29T03:45:27.463Z,6.93
2022-11-29T03:46:27.120Z,6.85
2022-11-29T03:47:27.056Z,6.96
2022-11-29T03:48:27.012Z,6.93
2022-11-29T03:49:27.772Z,6.96
2022-11-29T03:50:27.010Z,6.85
2022-11-29T03:51:26.995Z,6.99
2022-11-29T03:52:26.985Z,6.79
2022-11-29T03:53:26.967Z,6.85
2022-11-29T03:54:27.078Z,6.85
2022-11-29T03:55:27.003Z,6.89
2022-11-29T03:56:27.206Z,6.86
2022-11-29T03:57:26.955Z,6.83
2022-11-29T03:58:26.944Z,6.99
2022-11-29T03:59:26.941Z,6.96
2022-11-29T04:00:26.969Z,6.96
2022-11-29T04:01:27.391Z,6.81
2022-11-29T04:02:26.997Z,6.89
2022-11-29T04:03:26.935Z,6.89
2022-11-29T04:04:26.922Z,6.86
2022-11-29T04:05:26.922Z,6.82
2022-11-29T04:06:26.896Z,6.88
2022-11-29T04:07:26.940Z,6.93
2022-11-29T04:08:26.883Z,6.82
2022-11-29T04:09:27.576Z,6.99
2022-11-29T04:10:26.881Z,6.96
2022-11-29T04:11:26.855Z,6.89
2022-11-29T04:12:26.868Z,6.93
2022-11-29T04:13:26.853Z,6.83
2022-11-29T04:14:26.862Z,6.99
2022-11-29T04:15:28.032Z,6.91
2022-11-29T04:16:26.827Z,6.88
2022-11-29T04:17:26.815Z,6.97
2022-11-29T04:18:26.830Z,7.00
2022-11-29T04:19:26.846Z,6.86
2022-11-29T04:20:26.816Z,6.93
2022-11-29T04:21:26.801Z,6.99
2022-11-29T04:22:26.788Z,6.89
2022-11-29T04:23:26.772Z,7.00
2022-11-29T04:24:26.792Z,6.99
2022-11-29T04:25:27.045Z,6.97
2022-11-29T04:26:30.821Z,7.03
2022-11-29T04:27:27.764Z,7.03
2022-11-29T04:28:26.742Z,7.03
2022-11-29T04:29:26.761Z,7.03
2022-11-29T04:30:26.732Z,7.01
2022-11-29T04:31:26.853Z,7.04
2022-11-29T04:32:26.731Z,7.04
2022-11-29T04:33:26.721Z,7.01
2022-11-29T04:34:26.718Z,6.97
2022-11-29T04:35:26.735Z,7.01
2022-11-29T04:36:26.893Z,7.00
2022-11-29T04:37:26.715Z,7.00
2022-11-29T04:38:26.706Z,7.06
2022-11-29T04:39:26.682Z,7.06
2022-11-29T04:40:26.687Z,7.15
2022-11-29T04:41:26.723Z,7.01
2022-11-29T04:42:26.656Z,7.04
2022-11-29T04:43:26.688Z,7.01
2022-11-29T04:44:26.653Z,7.04
2022-11-29T04:45:26.640Z,6.99
2022-11-29T04:46:26.731Z,7.06
2022-11-29T04:47:26.831Z,7.03
2022-11-29T04:48:26.608Z,7.07
2022-11-29T04:49:26.624Z,7.13
2022-11-29T04:50:26.595Z,7.15
2022-11-29T04:51:27.079Z,7.04
2022-11-29T04:52:26.607Z,7.13
2022-11-29T04:53:26.585Z,7.13
2022-11-29T04:54:26.566Z,7.11
2022-11-29T04:55:30.915Z,7.18
2022-11-29T04:56:26.998Z,7.10
2022-11-29T04:57:26.930Z,7.13
2022-11-29T04:58:26.557Z,7.21
2022-11-29T04:59:26.556Z,7.15
2022-11-29T05:00:26.539Z,7.11
2022-11-29T05:01:26.610Z,7.19
2022-11-29T05:02:26.569Z,7.15
2022-11-29T05:03:27.537Z,7.06
2022-11-29T05:04:26.518Z,7.11
2022-11-29T05:05:26.597Z,7.06
2022-11-29T05:06:26.506Z,7.04
2022-11-29T05:07:26.542Z,7.07
2022-11-29T05:08:26.496Z,7.13
2022-11-29T05:09:27.701Z,7.01
2022-11-29T05:10:26.508Z,7.01
2022-11-29T05:11:27.135Z,7.06
2022-11-29T05:12:26.463Z,7.13
2022-11-29T05:13:26.462Z,7.01
2022-11-29T05:14:26.452Z,7.06
2022-11-29T05:15:26.453Z,7.07
2022-11-29T05:16:26.582Z,7.01
2022-11-29T05:17:29.357Z,7.07
2022-11-29T05:18:26.506Z,7.16
2022-11-29T05:19:26.410Z,7.21
2022-11-29T05:20:26.418Z,7.03
2022-11-29T05:21:26.427Z,7.04
2022-11-29T05:22:26.409Z,7.15
2022-11-29T05:23:26.436Z,7.00
2022-11-29T05:24:26.583Z,7.06
2022-11-29T05:25:26.374Z,7.03
2022-11-29T05:26:26.385Z,6.97
2022-11-29T05:27:26.378Z,7.06
2022-11-29T05:28:26.381Z,6.91
2022-11-29T05:29:26.363Z,6.97
2022-11-29T05:30:27.018Z,7.07
2022-11-29T05:31:26.410Z,7.03
2022-11-29T05:32:26.344Z,6.96
2022-11-29T05:33:26.342Z,6.99
2022-11-29T05:34:31.706Z,6.99
2022-11-29T05:35:27.767Z,7.01
2022-11-29T05:36:26.331Z,7.00
2022-11-29T05:37:26.299Z,6.92
2022-11-29T05:38:26.322Z,7.07
2022-11-29T05:39:26.311Z,7.01
2022-11-29T05:40:26.406Z,7.10
2022-11-29T05:41:26.322Z,7.15
2022-11-29T05:42:26.312Z,7.03
2022-11-29T05:43:26.820Z,7.03
2022-11-29T05:44:26.262Z,7.07
2022-11-29T05:45:26.260Z,7.08
2022-11-29T05:46:26.317Z,7.07
2022-11-29T05:47:31.184Z,7.04
2022-11-29T05:48:27.275Z,7.01
2022-11-29T05:49:26.219Z,6.93
2022-11-29T05:50:26.968Z,7.07
2022-11-29T05:51:26.639Z,7.01
2022-11-29T05:52:26.631Z,7.00
2022-11-29T05:53:47.207Z,6.99
2022-11-29T05:54:26.193Z,7.08
2022-11-29T05:55:26.223Z,6.91
2022-11-29T05:56:26.215Z,6.85
2022-11-29T05:57:26.161Z,6.93
2022-11-29T05:58:30.329Z,7.00
2022-11-29T05:59:26.178Z,6.88
2022-11-29T06:00:26.195Z,7.00
2022-11-29T06:01:26.222Z,6.89
2022-11-29T06:02:26.300Z,6.93
2022-11-29T06:03:26.134Z,6.89
2022-11-29T06:04:26.137Z,6.93
2022-11-29T06:05:26.140Z,6.85
2022-11-29T06:06:26.142Z,6.86
2022-11-29T06:07:28.085Z,6.89
2022-11-29T06:08:26.116Z,6.92
2022-11-29T06:09:26.101Z,6.92
2022-11-29T06:10:26.115Z,6.88
2022-11-29T06:11:26.112Z,6.83
2022-11-29T06:12:26.093Z,6.96
2022-11-29T06:13:26.126Z,6.82
2022-11-29T06:14:26.734Z,6.83
2022-11-29T06:15:26.085Z,6.74
2022-11-29T06:16:26.151Z,6.83
2022-11-29T06:17:26.055Z,6.88
2022-11-29T06:18:26.059Z,6.78
2022-11-29T06:19:26.018Z,6.82
2022-11-29T06:20:26.034Z,6.88
2022-11-29T06:21:26.036Z,6.86
2022-11-29T06:22:26.004Z,6.75
2022-11-29T06:23:25.997Z,6.86
2022-11-29T06:24:26.335Z,6.79
2022-11-29T06:25:25.971Z,6.78
2022-11-29T06:26:26.425Z,6.86
2022-11-29T06:27:25.998Z,6.86
2022-11-29T06:28:25.997Z,6.85
2022-11-29T06:29:25.957Z,6.86
2022-11-29T06:30:26.025Z,6.85
2022-11-29T06:31:26.000Z,6.85
2022-11-29T06:32:26.392Z,6.71
2022-11-29T06:33:25.933Z,6.75
2022-11-29T06:34:30.496Z,6.74
2022-11-29T06:35:26.914Z,6.75
2022-11-29T06:36:25.918Z,6.78
2022-11-29T06:37:25.914Z,6.71
2022-11-29T06:38:25.920Z,6.78
2022-11-29T06:39:25.877Z,6.68
2022-11-29T06:40:25.880Z,6.70
2022-11-29T06:41:26.646Z,6.82
2022-11-29T06:42:25.883Z,6.73
2022-11-29T06:43:25.888Z,6.79
2022-11-29T06:44:25.870Z,6.78
2022-11-29T06:45:25.843Z,6.78
2022-11-29T06:46:25.954Z,6.92
2022-11-29T06:47:25.846Z,6.83
2022-11-29T06:48:25.859Z,6.96
2022-11-29T06:49:25.817Z,6.91
2022-11-29T06:50:25.828Z,6.99
2022-11-29T06:51:25.800Z,6.81
2022-11-29T06:52:25.803Z,6.91
2022-11-29T06:53:25.873Z,6.83
2022-11-29T06:54:25.800Z,6.97
2022-11-29T06:55:26.688Z,6.97
2022-11-29T06:56:25.794Z,6.86
2022-11-29T06:57:25.776Z,6.81
2022-11-29T06:58:25.774Z,6.86
2022-11-29T06:59:25.769Z,6.97
2022-11-29T07:00:25.747Z,6.96
2022-11-29T07:01:26.019Z,6.93
2022-11-29T07:02:25.883Z,6.92
2022-11-29T07:03:25.727Z,7.04
2022-11-29T07:04:25.736Z,6.93
2022-11-29T07:05:25.731Z,6.82
2022-11-29T07:06:26.141Z,6.96
2022-11-29T07:07:25.813Z,6.85
2022-11-29T07:08:25.725Z,6.85
2022-11-29T07:09:25.685Z,6.93
2022-11-29T07:10:25.699Z,6.92
2022-11-29T07:11:25.692Z,6.92
2022-11-29T07:12:25.701Z,6.97
2022-11-29T07:13:25.680Z,6.86
2022-11-29T07:14:25.683Z,6.99
2022-11-29T07:15:25.677Z,7.00
2022-11-29T07:16:25.703Z,7.00
2022-11-29T07:17:25.664Z,7.03
2022-11-29T07:18:25.641Z,7.04
2022-11-29T07:19:25.614Z,7.01
2022-11-29T07:20:25.633Z,7.10
2022-11-29T07:21:25.619Z,7.10
2022-11-29T07:22:26.354Z,7.08
2022-11-29T07:23:25.602Z,7.06
2022-11-29T07:24:25.638Z,7.10
2022-11-29T07:25:25.580Z,7.19
2022-11-29T07:26:25.600Z,7.07
2022-11-29T07:27:25.559Z,7.25
2022-11-29T07:28:25.970Z,7.08
2022-11-29T07:29:25.561Z,7.11
2022-11-29T07:30:25.577Z,7.13
2022-11-29T07:31:25.627Z,7.22
2022-11-29T07:32:25.539Z,7.19
2022-11-29T07:33:25.663Z,7.24
2022-11-29T07:34:25.597Z,7.13
2022-11-29T07:35:25.558Z,7.08
2022-11-29T07:36:25.551Z,7.19
2022-11-29T07:37:25.524Z,7.21
2022-11-29T07:38:25.490Z,7.24
2022-11-29T07:39:26.277Z,7.13
2022-11-29T07:40:25.502Z,7.22
2022-11-29T07:41:25.516Z,7.22
2022-11-29T07:42:25.475Z,7.13
2022-11-29T07:43:25.780Z,7.11
2022-11-29T07:44:25.726Z,7.28
2022-11-29T07:45:25.488Z,7.16
2022-11-29T07:46:25.537Z,7.15
2022-11-29T07:47:25.520Z,7.22
2022-11-29T07:48:25.443Z,7.19
2022-11-29T07:49:25.439Z,7.22
2022-11-29T07:50:26.266Z,7.18
2022-11-29T07:51:25.461Z,7.26
2022-11-29T07:52:25.413Z,7.19
2022-11-29T07:53:25.495Z,7.19
2022-11-29T07:54:25.412Z,7.21
2022-11-29T07:55:25.873Z,7.21
2022-11-29T07:56:25.374Z,7.13
2022-11-29T07:57:25.394Z,7.18
2022-11-29T07:58:25.396Z,7.19
2022-11-29T07:59:25.381Z,7.33
2022-11-29T08:00:27.622Z,7.24
2022-11-29T08:01:25.393Z,7.21
2022-11-29T08:02:25.412Z,7.36
2022-11-29T08:03:25.517Z,7.29
2022-11-29T08:04:25.326Z,7.29
2022-11-29T08:05:25.340Z,7.39
2022-11-29T08:06:25.339Z,7.39
2022-11-29T08:07:25.536Z,7.44
2022-11-29T08:08:25.299Z,7.47
2022-11-29T08:09:25.325Z,7.44
2022-11-29T08:10:25.401Z,7.54
2022-11-29T08:11:25.360Z,7.47
2022-11-29T08:12:25.283Z,7.49
2022-11-29T08:13:25.315Z,7.52
2022-11-29T08:14:25.284Z,7.55
2022-11-29T08:15:25.295Z,7.58
2022-11-29T08:16:25.328Z,7.52
2022-11-29T08:17:25.952Z,7.52
2022-11-29T08:18:25.236Z,7.55
2022-11-29T08:19:25.259Z,7.47
2022-11-29T08:20:25.378Z,7.66
2022-11-29T08:21:25.261Z,7.64
2022-11-29T08:22:25.217Z,7.76
2022-11-29T08:23:25.757Z,7.71
2022-11-29T08:24:25.240Z,7.73
2022-11-29T08:25:25.210Z,7.69
2022-11-29T08:26:29.821Z,7.66
2022-11-29T08:27:26.183Z,7.77
2022-11-29T08:28:25.179Z,7.78
2022-11-29T08:29:25.194Z,7.78
2022-11-29T08:30:25.221Z,7.81
2022-11-29T08:31:25.192Z,7.92
2022-11-29T08:32:25.151Z,7.80
2022-11-29T08:33:25.246Z,7.83
2022-11-29T08:34:25.137Z,7.86
2022-11-29T08:35:25.157Z,7.86
2022-11-29T08:36:25.180Z,7.84
2022-11-29T08:37:25.131Z,7.94
2022-11-29T08:38:25.478Z,7.87
2022-11-29T08:39:25.108Z,7.81
2022-11-29T08:40:25.104Z,7.81
2022-11-29T08:41:25.095Z,7.73
2022-11-29T08:42:25.094Z,7.83
2022-11-29T08:43:25.739Z,7.88
2022-11-29T08:44:25.066Z,7.91
2022-11-29T08:45:25.168Z,7.87
2022-11-29T08:46:25.090Z,7.91
2022-11-29T08:47:25.462Z,7.92
2022-11-29T08:48:25.060Z,7.88
2022-11-29T08:49:25.172Z,7.87
2022-11-29T08:50:25.046Z,7.87
2022-11-29T08:51:25.070Z,7.95
2022-11-29T08:52:25.989Z,8.02
2022-11-29T08:53:25.033Z,8.04
2022-11-29T08:54:25.016Z,7.98
2022-11-29T08:55:25.018Z,8.04
2022-11-29T08:57:10.257Z,8.06
2022-11-29T08:57:41.592Z,8.06
2022-11-29T08:58:25.986Z,8.13
2022-11-29T08:59:24.975Z,8.09
2022-11-29T09:00:24.990Z,8.19
2022-11-29T09:01:25.109Z,8.13
2022-11-29T09:02:25.053Z,8.09
2022-11-29T09:03:25.407Z,8.16
2022-11-29T09:04:24.934Z,8.01
2022-11-29T09:05:24.975Z,8.06
2022-11-29T09:06:24.923Z,8.06
2022-11-29T09:07:24.998Z,8.09
2022-11-29T09:08:25.347Z,8.06
2022-11-29T09:09:46.562Z,7.94
2022-11-29T09:10:24.943Z,8.05
2022-11-29T09:11:24.900Z,7.98
2022-11-29T09:12:24.894Z,8.04
2022-11-29T09:13:24.893Z,7.94
2022-11-29T09:14:24.878Z,7.86
2022-11-29T09:15:24.931Z,7.91
2022-11-29T09:16:24.890Z,7.98
2022-11-29T09:17:24.885Z,7.94
2022-11-29T09:18:24.837Z,7.83
2022-11-29T09:19:25.458Z,7.86
2022-11-29T09:20:24.841Z,7.88
2022-11-29T09:21:24.841Z,7.87
2022-11-29T09:22:24.838Z,7.92
2022-11-29T09:23:24.918Z,7.96
2022-11-29T09:24:24.794Z,8.01
2022-11-29T09:25:25.233Z,8.06
2022-11-29T09:26:24.791Z,8.01
2022-11-29T09:27:24.783Z,7.99
2022-11-29T09:28:24.793Z,7.94
2022-11-29T09:29:24.771Z,8.05
2022-11-29T09:30:24.906Z,8.04
2022-11-29T09:31:24.828Z,7.96
2022-11-29T09:32:25.169Z,7.99
2022-11-29T09:33:24.758Z,8.02
2022-11-29T09:34:24.820Z,8.09
2022-11-29T09:35:24.730Z,8.01
2022-11-29T09:36:28.424Z,7.94
2022-11-29T09:37:24.711Z,7.94
2022-11-29T09:38:24.733Z,8.02
2022-11-29T09:39:24.758Z,7.95
2022-11-29T09:40:24.703Z,7.94
2022-11-29T09:41:24.713Z,7.96
2022-11-29T09:42:24.718Z,7.99
2022-11-29T09:43:24.686Z,8.05
2022-11-29T09:44:25.888Z,8.09
2022-11-29T09:45:24.674Z,8.12
2022-11-29T09:46:24.696Z,8.17
2022-11-29T09:47:24.655Z,8.17
2022-11-29T09:48:24.692Z,8.24
2022-11-29T09:49:24.636Z,8.16
2022-11-29T09:50:24.695Z,8.35
2022-11-29T09:51:24.656Z,8.23
2022-11-29T09:52:24.673Z,8.31
2022-11-29T09:53:25.870Z,8.28
2022-11-29T09:54:24.624Z,8.16
2022-11-29T09:55:24.653Z,8.28
2022-11-29T09:56:24.626Z,8.26
2022-11-29T09:57:24.594Z,8.26
2022-11-29T09:58:24.582Z,8.31
2022-11-29T09:59:27.441Z,8.41
2022-11-29T10:00:24.586Z,8.39
2022-11-29T10:01:24.673Z,8.31
2022-11-29T10:02:24.617Z,8.46
2022-11-29T10:03:24.561Z,8.32
2022-11-29T10:04:25.270Z,8.47
2022-11-29T10:05:24.531Z,8.38
2022-11-29T10:06:24.523Z,8.37
2022-11-29T10:07:24.599Z,8.39
2022-11-29T10:08:24.532Z,8.41
2022-11-29T10:09:24.495Z,8.34
2022-11-29T10:10:24.548Z,8.28
2022-11-29T10:11:24.530Z,8.37
2022-11-29T10:12:24.483Z,8.39
2022-11-29T10:13:24.469Z,8.47
2022-11-29T10:14:24.489Z,8.49
2022-11-29T10:15:25.156Z,8.52
2022-11-29T10:16:24.568Z,8.46
2022-11-29T10:17:24.454Z,8.41
2022-11-29T10:18:24.445Z,8.56
2022-11-29T10:19:24.429Z,8.56
2022-11-29T10:20:24.476Z,8.53
2022-11-29T10:21:24.418Z,8.56
2022-11-29T10:22:25.317Z,8.55
2022-11-29T10:23:24.428Z,8.67
2022-11-29T10:24:24.403Z,8.62
2022-11-29T10:25:24.403Z,8.70
2022-11-29T10:26:24.620Z,8.63
2022-11-29T10:27:24.414Z,8.71
2022-11-29T10:28:24.370Z,8.67
2022-11-29T10:29:24.384Z,8.63
2022-11-29T10:30:24.438Z,8.72
2022-11-29T10:31:24.774Z,8.72
2022-11-29T10:32:26.197Z,8.65
2022-11-29T10:33:24.356Z,8.60
2022-11-29T10:34:24.329Z,8.70
2022-11-29T10:35:24.344Z,8.70
2022-11-29T10:36:24.307Z,8.57
2022-11-29T10:37:24.327Z,8.60
2022-11-29T10:38:32.102Z,8.57
2022-11-29T10:39:25.296Z,8.55
2022-11-29T10:40:24.296Z,8.53
2022-11-29T10:41:24.286Z,8.53
2022-11-29T10:42:24.512Z,8.55
2022-11-29T10:43:24.316Z,8.53
2022-11-29T10:44:24.276Z,8.60
2022-11-29T10:45:24.261Z,8.65
2022-11-29T10:46:24.271Z,8.60
2022-11-29T10:47:24.255Z,8.74
2022-11-29T10:48:24.313Z,8.71
2022-11-29T10:49:24.978Z,8.72
2022-11-29T10:50:24.224Z,8.71
2022-11-29T10:51:24.210Z,8.68
2022-11-29T10:52:24.207Z,8.72
2022-11-29T10:53:24.245Z,8.78
2022-11-29T10:54:24.200Z,8.81
2022-11-29T10:55:24.233Z,8.75
2022-11-29T10:56:24.292Z,8.78
2022-11-29T10:57:24.255Z,8.78
2022-11-29T10:58:27.947Z,8.81
2022-11-29T10:59:24.256Z,8.72
2022-11-29T11:00:24.195Z,8.74
2022-11-29T11:01:24.263Z,8.68
2022-11-29T11:02:25.128Z,8.72
2022-11-29T11:03:24.129Z,8.80
2022-11-29T11:04:24.122Z,8.74
2022-11-29T11:05:25.004Z,8.77
2022-11-29T11:06:24.188Z,8.86
2022-11-29T11:07:24.663Z,8.78
2022-11-29T11:08:24.478Z,8.75
2022-11-29T11:09:24.233Z,8.80
2022-11-29T11:10:24.080Z,8.74
2022-11-29T11:11:24.091Z,8.85
2022-11-29T11:12:24.079Z,8.86
2022-11-29T11:13:24.059Z,8.72
2022-11-29T11:14:24.034Z,8.80
2022-11-29T11:15:24.087Z,8.78
2022-11-29T11:16:25.086Z,8.83
2022-11-29T11:17:24.046Z,8.78
2022-11-29T11:18:24.122Z,8.71
2022-11-29T11:19:24.538Z,8.77
2022-11-29T11:20:23.992Z,8.75
2022-11-29T11:21:24.145Z,8.71
2022-11-29T11:22:23.989Z,8.67
2022-11-29T11:23:24.028Z,8.67
2022-11-29T11:24:23.988Z,8.70
2022-11-29T11:25:23.963Z,8.47
2022-11-29T11:26:24.012Z,8.55
2022-11-29T11:27:24.050Z,8.44
2022-11-29T11:28:23.940Z,8.44
2022-11-29T11:29:23.951Z,8.41
2022-11-29T11:30:23.940Z,8.28
2022-11-29T11:31:24.020Z,8.35
2022-11-29T11:32:23.935Z,8.20
2022-11-29T11:33:24.740Z,8.39
2022-11-29T11:34:23.903Z,8.37
2022-11-29T11:35:23.914Z,8.44
2022-11-29T11:36:23.906Z,8.52
2022-11-29T11:37:23.899Z,8.49
2022-11-29T11:38:23.887Z,8.49
2022-11-29T11:39:23.919Z,8.62
2022-11-29T11:40:23.993Z,8.60
2022-11-29T11:41:23.865Z,8.57
2022-11-29T11:42:24.479Z,8.57
2022-11-29T11:43:23.861Z,8.70
2022-11-29T11:44:46.378Z,8.71
2022-11-29T11:45:24.850Z,8.72
2022-11-29T11:46:24.514Z,8.83
2022-11-29T11:47:23.839Z,8.81
2022-11-29T11:48:24.009Z,8.67
2022-11-29T11:49:23.846Z,8.74
2022-11-29T11:50:23.823Z,8.83
2022-11-29T11:51:23.796Z,8.92
2022-11-29T11:52:23.789Z,8.71
2022-11-29T11:53:23.771Z,8.80
2022-11-29T11:54:23.769Z,8.83
2022-11-29T11:55:23.793Z,8.75
2022-11-29T11:56:23.751Z,8.74
2022-11-29T11:57:23.776Z,8.75
2022-11-29T11:58:23.745Z,8.71
2022-11-29T11:59:23.734Z,8.78
2022-11-29T12:00:47.525Z,8.83
2022-11-29T12:01:24.734Z,8.80
2022-11-29T12:02:23.844Z,8.81
2022-11-29T12:03:23.904Z,8.77
2022-11-29T12:04:23.699Z,8.72
2022-11-29T12:05:23.735Z,8.70
2022-11-29T12:06:23.679Z,8.72
2022-11-29T12:07:45.191Z,8.74
2022-11-29T12:08:24.709Z,8.72
2022-11-29T12:09:23.697Z,8.56
2022-11-29T12:10:23.665Z,8.59
2022-11-29T12:11:23.647Z,8.59
2022-11-29T12:12:23.641Z,8.60
2022-11-29T12:13:23.669Z,8.59
2022-11-29T12:14:23.620Z,8.59
2022-11-29T12:15:23.641Z,8.59
2022-11-29T12:16:23.605Z,8.68
2022-11-29T12:17:23.618Z,8.55
2022-11-29T12:18:23.615Z,8.74
2022-11-29T12:19:23.878Z,8.70
2022-11-29T12:20:23.576Z,8.65
2022-11-29T12:21:23.603Z,8.68
2022-11-29T12:22:23.580Z,8.57
2022-11-29T12:23:23.998Z,8.63
2022-11-29T12:24:23.701Z,8.65
2022-11-29T12:25:23.635Z,8.60
2022-11-29T12:26:55.295Z,8.68
2022-11-29T12:27:24.553Z,8.67
2022-11-29T12:28:23.521Z,8.63
2022-11-29T12:29:23.554Z,8.77
2022-11-29T12:30:23.529Z,8.68
2022-11-29T12:31:23.535Z,8.74
2022-11-29T12:32:23.514Z,8.59
2022-11-29T12:33:23.493Z,8.65
2022-11-29T12:34:23.493Z,8.59
2022-11-29T12:35:23.536Z,8.65
2022-11-29T12:36:23.465Z,8.72
2022-11-29T12:37:23.486Z,8.68
2022-11-29T12:38:23.468Z,8.62
2022-11-29T12:39:23.458Z,8.59
2022-11-29T12:40:23.473Z,8.55
2022-11-29T12:41:23.463Z,8.59
2022-11-29T12:42:23.578Z,8.67
2022-11-29T12:43:23.442Z,8.63
2022-11-29T12:44:23.419Z,8.70
2022-11-29T12:45:23.448Z,8.67
2022-11-29T12:46:23.470Z,8.68
2022-11-29T12:47:38.833Z,8.62
2022-11-29T12:48:24.413Z,8.60
2022-11-29T12:49:23.406Z,8.60
2022-11-29T12:50:23.372Z,8.70
2022-11-29T12:51:23.413Z,8.65
2022-11-29T12:52:24.005Z,8.75
2022-11-29T12:53:27.220Z,8.72
2022-11-29T12:54:23.344Z,8.71
2022-11-29T12:55:23.356Z,8.75
2022-11-29T12:56:23.331Z,8.71
2022-11-29T12:57:23.343Z,8.74
2022-11-29T12:58:23.340Z,8.78
2022-11-29T12:59:23.317Z,8.80
2022-11-29T13:00:23.740Z,8.78
2022-11-29T13:01:23.438Z,8.80
2022-11-29T13:02:23.396Z,8.81
2022-11-29T13:03:23.304Z,8.77
2022-11-29T13:04:23.320Z,8.83
2022-11-29T13:05:23.724Z,8.89
2022-11-29T13:06:23.282Z,8.90
2022-11-29T13:07:23.328Z,8.80
2022-11-29T13:08:23.246Z,8.75
2022-11-29T13:09:23.304Z,8.70
2022-11-29T13:10:23.253Z,8.72
2022-11-29T13:11:23.679Z,8.71
2022-11-29T13:12:23.668Z,8.70
2022-11-29T13:13:23.229Z,8.81
2022-11-29T13:15:24.224Z,8.80
2022-11-29T13:17:24.665Z,8.77
2022-11-29T13:18:23.199Z,8.78
2022-11-29T13:19:23.185Z,8.89
2022-11-29T13:20:23.173Z,8.88